sensor_id;sensor_type;location;lat;lon;timestamp;P1;durP1;ratioP1;P2;durP2;ratioP2
45618;SDS011;31343;47.520;19.144;2023-03-26T00:01:02;1.60;;;0.70;;
45618;SDS011;31343;47.520;19.144;2023-03-26T00:03:30;0.40;;;0.40;;
45618;SDS011;31343;47.520;19.144;2023-03-26T00:06:15;0.88;;;0.60;;
45618;SDS011;31343;47.520;19.144;2023-03-26T00:08:42;0.73;;;0.43;;
45618;SDS011;31343;47.520;19.144;2023-03-26T00:11:10;0.45;;;0.45;;
45618;SDS011;31343;47.520;19.144;2023-03-26T00:13:37;0.52;;;0.40;;
45618;SDS011;31343;47.520;19.144;2023-03-26T00:16:04;1.08;;;0.50;;
45618;SDS011;31343;47.520;19.144;2023-03-26T00:18:30;1.30;;;0.80;;
45618;SDS011;31343;47.520;19.144;2023-03-26T00:21:01;0.70;;;0.43;;
45618;SDS011;31343;47.520;19.144;2023-03-26T00:23:28;1.17;;;0.57;;
45618;SDS011;31343;47.520;19.144;2023-03-26T00:25:55;0.93;;;0.57;;
45618;SDS011;31343;47.520;19.144;2023-03-26T00:28:21;1.48;;;0.50;;
45618;SDS011;31343;47.520;19.144;2023-03-26T00:30:48;0.80;;;0.50;;
45618;SDS011;31343;47.520;19.144;2023-03-26T00:33:20;2.28;;;0.50;;
45618;SDS011;31343;47.520;19.144;2023-03-26T00:35:51;0.45;;;0.40;;
45618;SDS011;31343;47.520;19.144;2023-03-26T00:38:18;1.45;;;0.50;;
45618;SDS011;31343;47.520;19.144;2023-03-26T00:40:46;0.95;;;0.50;;
45618;SDS011;31343;47.520;19.144;2023-03-26T00:43:15;1.20;;;0.60;;
45618;SDS011;31343;47.520;19.144;2023-03-26T00:48:16;1.08;;;0.60;;
45618;SDS011;31343;47.520;19.144;2023-03-26T00:50:43;0.57;;;0.47;;
45618;SDS011;31343;47.520;19.144;2023-03-26T00:53:11;0.60;;;0.40;;
45618;SDS011;31343;47.520;19.144;2023-03-26T00:55:38;1.00;;;0.50;;
45618;SDS011;31343;47.520;19.144;2023-03-26T00:58:06;0.63;;;0.50;;
45618;SDS011;31343;47.520;19.144;2023-03-26T01:00:36;1.48;;;0.50;;
45618;SDS011;31343;47.520;19.144;2023-03-26T01:03:09;0.90;;;0.70;;
45618;SDS011;31343;47.520;19.144;2023-03-26T01:05:43;1.30;;;0.50;;
45618;SDS011;31343;47.520;19.144;2023-03-26T01:10:59;0.65;;;0.40;;
45618;SDS011;31343;47.520;19.144;2023-03-26T01:13:32;0.57;;;0.47;;
45618;SDS011;31343;47.520;19.144;2023-03-26T01:16:01;0.55;;;0.50;;
45618;SDS011;31343;47.520;19.144;2023-03-26T01:18:30;0.75;;;0.60;;
45618;SDS011;31343;47.520;19.144;2023-03-26T01:20:59;1.35;;;0.60;;
45618;SDS011;31343;47.520;19.144;2023-03-26T01:23:46;0.50;;;0.50;;
45618;SDS011;31343;47.520;19.144;2023-03-26T01:26:24;0.55;;;0.43;;
45618;SDS011;31343;47.520;19.144;2023-03-26T01:29:02;1.08;;;0.63;;
45618;SDS011;31343;47.520;19.144;2023-03-26T01:31:32;0.95;;;0.60;;
45618;SDS011;31343;47.520;19.144;2023-03-26T01:39:57;0.85;;;0.70;;
45618;SDS011;31343;47.520;19.144;2023-03-26T01:42:45;1.10;;;0.50;;
45618;SDS011;31343;47.520;19.144;2023-03-26T01:45:19;0.95;;;0.50;;
45618;SDS011;31343;47.520;19.144;2023-03-26T01:47:48;1.00;;;0.60;;
45618;SDS011;31343;47.520;19.144;2023-03-26T01:50:14;1.13;;;0.60;;
45618;SDS011;31343;47.520;19.144;2023-03-26T01:52:40;0.65;;;0.50;;
45618;SDS011;31343;47.520;19.144;2023-03-26T01:55:06;0.93;;;0.50;;
45618;SDS011;31343;47.520;19.144;2023-03-26T02:00:22;1.85;;;0.60;;
45618;SDS011;31343;47.520;19.144;2023-03-26T02:08:37;1.10;;;0.75;;
45618;SDS011;31343;47.520;19.144;2023-03-26T02:11:23;1.60;;;0.70;;
45618;SDS011;31343;47.520;19.144;2023-03-26T02:13:49;1.00;;;0.63;;
45618;SDS011;31343;47.520;19.144;2023-03-26T02:16:15;1.48;;;1.05;;
45618;SDS011;31343;47.520;19.144;2023-03-26T02:18:44;0.95;;;0.80;;
45618;SDS011;31343;47.520;19.144;2023-03-26T02:21:15;1.27;;;0.55;;
45618;SDS011;31343;47.520;19.144;2023-03-26T02:23:49;1.45;;;0.60;;
45618;SDS011;31343;47.520;19.144;2023-03-26T02:26:22;1.10;;;0.60;;
45618;SDS011;31343;47.520;19.144;2023-03-26T02:28:48;0.70;;;0.60;;
45618;SDS011;31343;47.520;19.144;2023-03-26T02:31:13;0.98;;;0.57;;
45618;SDS011;31343;47.520;19.144;2023-03-26T02:33:40;0.95;;;0.60;;
45618;SDS011;31343;47.520;19.144;2023-03-26T02:36:08;0.75;;;0.60;;
45618;SDS011;31343;47.520;19.144;2023-03-26T02:38:38;3.47;;;0.75;;
45618;SDS011;31343;47.520;19.144;2023-03-26T02:41:04;1.05;;;0.60;;
45618;SDS011;31343;47.520;19.144;2023-03-26T02:43:30;1.23;;;0.65;;
45618;SDS011;31343;47.520;19.144;2023-03-26T02:45:56;0.95;;;0.60;;
45618;SDS011;31343;47.520;19.144;2023-03-26T02:48:23;0.85;;;0.55;;
45618;SDS011;31343;47.520;19.144;2023-03-26T02:50:48;0.68;;;0.60;;
45618;SDS011;31343;47.520;19.144;2023-03-26T02:53:18;0.82;;;0.60;;
45618;SDS011;31343;47.520;19.144;2023-03-26T02:55:46;1.40;;;0.73;;
45618;SDS011;31343;47.520;19.144;2023-03-26T02:58:12;1.58;;;0.70;;
45618;SDS011;31343;47.520;19.144;2023-03-26T03:00:44;2.50;;;0.82;;
45618;SDS011;31343;47.520;19.144;2023-03-26T03:03:11;2.55;;;1.63;;
45618;SDS011;31343;47.520;19.144;2023-03-26T03:05:37;1.02;;;0.60;;
45618;SDS011;31343;47.520;19.144;2023-03-26T03:08:08;0.98;;;0.60;;
45618;SDS011;31343;47.520;19.144;2023-03-26T03:10:34;1.85;;;0.70;;
45618;SDS011;31343;47.520;19.144;2023-03-26T03:13:02;1.10;;;0.60;;
45618;SDS011;31343;47.520;19.144;2023-03-26T03:15:30;1.75;;;0.60;;
45618;SDS011;31343;47.520;19.144;2023-03-26T03:17:55;1.77;;;0.70;;
45618;SDS011;31343;47.520;19.144;2023-03-26T03:20:21;1.77;;;0.70;;
45618;SDS011;31343;47.520;19.144;2023-03-26T03:22:47;1.75;;;0.90;;
45618;SDS011;31343;47.520;19.144;2023-03-26T03:25:12;1.45;;;0.60;;
45618;SDS011;31343;47.520;19.144;2023-03-26T03:27:41;2.05;;;0.70;;
45618;SDS011;31343;47.520;19.144;2023-03-26T03:30:08;0.43;;;0.43;;
45618;SDS011;31343;47.520;19.144;2023-03-26T03:32:37;1.08;;;0.70;;
45618;SDS011;31343;47.520;19.144;2023-03-26T03:35:03;1.58;;;0.80;;
45618;SDS011;31343;47.520;19.144;2023-03-26T03:37:30;2.17;;;0.90;;
45618;SDS011;31343;47.520;19.144;2023-03-26T03:39:55;1.08;;;0.98;;
45618;SDS011;31343;47.520;19.144;2023-03-26T03:42:21;1.70;;;0.70;;
45618;SDS011;31343;47.520;19.144;2023-03-26T03:44:47;1.40;;;0.90;;
45618;SDS011;31343;47.520;19.144;2023-03-26T03:47:12;1.20;;;0.80;;
45618;SDS011;31343;47.520;19.144;2023-03-26T03:49:39;1.30;;;0.90;;
45618;SDS011;31343;47.520;19.144;2023-03-26T03:52:05;2.15;;;0.77;;
45618;SDS011;31343;47.520;19.144;2023-03-26T03:54:31;2.47;;;0.88;;
45618;SDS011;31343;47.520;19.144;2023-03-26T03:56:57;1.23;;;0.65;;
45618;SDS011;31343;47.520;19.144;2023-03-26T03:59:23;0.95;;;0.70;;
45618;SDS011;31343;47.520;19.144;2023-03-26T04:01:48;1.88;;;0.70;;
45618;SDS011;31343;47.520;19.144;2023-03-26T04:04:15;1.48;;;0.90;;
45618;SDS011;31343;47.520;19.144;2023-03-26T04:06:41;1.02;;;0.68;;
45618;SDS011;31343;47.520;19.144;2023-03-26T04:09:07;3.03;;;0.80;;
45618;SDS011;31343;47.520;19.144;2023-03-26T04:11:34;2.60;;;0.80;;
45618;SDS011;31343;47.520;19.144;2023-03-26T04:14:00;1.92;;;0.70;;
45618;SDS011;31343;47.520;19.144;2023-03-26T04:16:26;1.05;;;0.75;;
45618;SDS011;31343;47.520;19.144;2023-03-26T04:18:52;3.65;;;0.90;;
45618;SDS011;31343;47.520;19.144;2023-03-26T04:21:18;0.68;;;0.60;;
45618;SDS011;31343;47.520;19.144;2023-03-26T04:23:44;2.63;;;0.82;;
45618;SDS011;31343;47.520;19.144;2023-03-26T04:26:14;0.93;;;0.70;;
45618;SDS011;31343;47.520;19.144;2023-03-26T04:28:52;1.27;;;0.90;;
45618;SDS011;31343;47.520;19.144;2023-03-26T04:31:21;1.38;;;0.90;;
45618;SDS011;31343;47.520;19.144;2023-03-26T04:33:53;3.05;;;0.95;;
45618;SDS011;31343;47.520;19.144;2023-03-26T04:36:28;1.55;;;0.85;;
45618;SDS011;31343;47.520;19.144;2023-03-26T04:38:56;1.77;;;1.10;;
45618;SDS011;31343;47.520;19.144;2023-03-26T04:41:26;2.92;;;0.90;;
45618;SDS011;31343;47.520;19.144;2023-03-26T04:43:53;2.03;;;0.95;;
45618;SDS011;31343;47.520;19.144;2023-03-26T04:46:21;3.70;;;2.13;;
45618;SDS011;31343;47.520;19.144;2023-03-26T04:48:51;2.13;;;1.10;;
45618;SDS011;31343;47.520;19.144;2023-03-26T04:51:18;2.40;;;1.10;;
45618;SDS011;31343;47.520;19.144;2023-03-26T04:53:54;1.92;;;0.90;;
45618;SDS011;31343;47.520;19.144;2023-03-26T04:58:54;3.25;;;1.60;;
45618;SDS011;31343;47.520;19.144;2023-03-26T05:01:24;3.40;;;1.38;;
45618;SDS011;31343;47.520;19.144;2023-03-26T05:03:52;2.90;;;1.23;;
45618;SDS011;31343;47.520;19.144;2023-03-26T05:06:18;1.88;;;0.90;;
45618;SDS011;31343;47.520;19.144;2023-03-26T05:08:46;2.33;;;1.40;;
45618;SDS011;31343;47.520;19.144;2023-03-26T05:11:11;2.50;;;1.30;;
45618;SDS011;31343;47.520;19.144;2023-03-26T05:13:37;2.90;;;1.60;;
45618;SDS011;31343;47.520;19.144;2023-03-26T05:16:03;3.80;;;1.20;;
45618;SDS011;31343;47.520;19.144;2023-03-26T05:18:29;2.95;;;1.35;;
45618;SDS011;31343;47.520;19.144;2023-03-26T05:20:56;2.17;;;1.38;;
45618;SDS011;31343;47.520;19.144;2023-03-26T05:23:22;2.20;;;1.20;;
45618;SDS011;31343;47.520;19.144;2023-03-26T05:25:48;2.97;;;1.25;;
45618;SDS011;31343;47.520;19.144;2023-03-26T05:28:13;1.88;;;1.02;;
45618;SDS011;31343;47.520;19.144;2023-03-26T05:30:40;1.38;;;0.85;;
45618;SDS011;31343;47.520;19.144;2023-03-26T05:33:07;2.10;;;0.77;;
45618;SDS011;31343;47.520;19.144;2023-03-26T05:35:33;1.48;;;0.73;;
45618;SDS011;31343;47.520;19.144;2023-03-26T05:38:00;2.03;;;1.00;;
45618;SDS011;31343;47.520;19.144;2023-03-26T05:40:25;2.33;;;0.70;;
45618;SDS011;31343;47.520;19.144;2023-03-26T05:42:51;0.95;;;0.68;;
45618;SDS011;31343;47.520;19.144;2023-03-26T05:45:17;1.42;;;0.73;;
45618;SDS011;31343;47.520;19.144;2023-03-26T05:47:43;1.75;;;1.20;;
45618;SDS011;31343;47.520;19.144;2023-03-26T05:50:09;1.77;;;0.60;;
45618;SDS011;31343;47.520;19.144;2023-03-26T05:52:37;2.47;;;0.80;;
45618;SDS011;31343;47.520;19.144;2023-03-26T05:55:03;2.95;;;0.65;;
45618;SDS011;31343;47.520;19.144;2023-03-26T05:57:29;1.98;;;0.80;;
45618;SDS011;31343;47.520;19.144;2023-03-26T05:59:55;1.30;;;0.60;;
45618;SDS011;31343;47.520;19.144;2023-03-26T06:02:21;1.13;;;0.73;;
45618;SDS011;31343;47.520;19.144;2023-03-26T06:04:47;1.42;;;0.63;;
45618;SDS011;31343;47.520;19.144;2023-03-26T06:07:15;0.85;;;0.55;;
45618;SDS011;31343;47.520;19.144;2023-03-26T06:09:42;1.10;;;0.60;;
45618;SDS011;31343;47.520;19.144;2023-03-26T06:12:08;3.10;;;1.25;;
45618;SDS011;31343;47.520;19.144;2023-03-26T06:14:35;1.67;;;1.02;;
45618;SDS011;31343;47.520;19.144;2023-03-26T06:17:01;2.95;;;1.30;;
45618;SDS011;31343;47.520;19.144;2023-03-26T06:19:27;1.63;;;0.93;;
45618;SDS011;31343;47.520;19.144;2023-03-26T06:21:53;2.97;;;1.42;;
45618;SDS011;31343;47.520;19.144;2023-03-26T06:24:19;2.17;;;0.98;;
45618;SDS011;31343;47.520;19.144;2023-03-26T06:26:46;2.17;;;0.90;;
45618;SDS011;31343;47.520;19.144;2023-03-26T06:29:14;1.60;;;0.70;;
45618;SDS011;31343;47.520;19.144;2023-03-26T06:31:40;1.75;;;0.80;;
45618;SDS011;31343;47.520;19.144;2023-03-26T06:34:08;2.70;;;0.80;;
45618;SDS011;31343;47.520;19.144;2023-03-26T06:36:33;1.33;;;0.63;;
45618;SDS011;31343;47.520;19.144;2023-03-26T06:39:01;0.82;;;0.55;;
45618;SDS011;31343;47.520;19.144;2023-03-26T06:41:28;1.58;;;0.90;;
45618;SDS011;31343;47.520;19.144;2023-03-26T06:43:56;1.25;;;0.60;;
45618;SDS011;31343;47.520;19.144;2023-03-26T06:46:23;1.00;;;0.60;;
45618;SDS011;31343;47.520;19.144;2023-03-26T06:48:49;3.60;;;0.80;;
45618;SDS011;31343;47.520;19.144;2023-03-26T06:51:18;2.17;;;0.80;;
45618;SDS011;31343;47.520;19.144;2023-03-26T06:53:43;2.45;;;0.60;;
45618;SDS011;31343;47.520;19.144;2023-03-26T06:56:09;2.25;;;0.70;;
45618;SDS011;31343;47.520;19.144;2023-03-26T06:58:35;2.28;;;0.60;;
45618;SDS011;31343;47.520;19.144;2023-03-26T07:01:00;1.63;;;0.47;;
45618;SDS011;31343;47.520;19.144;2023-03-26T07:03:26;1.27;;;0.55;;
45618;SDS011;31343;47.520;19.144;2023-03-26T07:05:52;1.58;;;0.93;;
45618;SDS011;31343;47.520;19.144;2023-03-26T07:08:18;1.85;;;0.82;;
45618;SDS011;31343;47.520;19.144;2023-03-26T07:10:44;1.38;;;0.60;;
45618;SDS011;31343;47.520;19.144;2023-03-26T07:13:10;1.30;;;0.60;;
45618;SDS011;31343;47.520;19.144;2023-03-26T07:15:36;1.55;;;0.60;;
45618;SDS011;31343;47.520;19.144;2023-03-26T07:18:03;1.88;;;0.70;;
45618;SDS011;31343;47.520;19.144;2023-03-26T07:20:28;2.30;;;0.80;;
45618;SDS011;31343;47.520;19.144;2023-03-26T07:22:54;2.28;;;1.10;;
45618;SDS011;31343;47.520;19.144;2023-03-26T07:25:20;1.80;;;0.80;;
45618;SDS011;31343;47.520;19.144;2023-03-26T07:33:13;2.90;;;1.13;;
45618;SDS011;31343;47.520;19.144;2023-03-26T07:35:41;1.77;;;0.75;;
45618;SDS011;31343;47.520;19.144;2023-03-26T07:38:21;2.10;;;0.75;;
45618;SDS011;31343;47.520;19.144;2023-03-26T07:46:46;1.55;;;0.73;;
45618;SDS011;31343;47.520;19.144;2023-03-26T07:49:13;1.75;;;0.80;;
45618;SDS011;31343;47.520;19.144;2023-03-26T07:51:42;2.25;;;0.90;;
45618;SDS011;31343;47.520;19.144;2023-03-26T07:54:09;1.35;;;0.70;;
45618;SDS011;31343;47.520;19.144;2023-03-26T07:56:43;1.27;;;0.70;;
45618;SDS011;31343;47.520;19.144;2023-03-26T08:03:08;3.78;;;1.00;;
45618;SDS011;31343;47.520;19.144;2023-03-26T08:10:25;1.98;;;1.00;;
45618;SDS011;31343;47.520;19.144;2023-03-26T08:16:13;3.78;;;1.30;;
45618;SDS011;31343;47.520;19.144;2023-03-26T08:21:35;2.15;;;0.82;;
45618;SDS011;31343;47.520;19.144;2023-03-26T08:31:44;2.43;;;1.00;;
45618;SDS011;31343;47.520;19.144;2023-03-26T08:34:13;1.83;;;0.80;;
45618;SDS011;31343;47.520;19.144;2023-03-26T08:36:40;2.55;;;0.80;;
45618;SDS011;31343;47.520;19.144;2023-03-26T08:39:06;3.63;;;1.38;;
45618;SDS011;31343;47.520;19.144;2023-03-26T08:41:51;2.28;;;1.15;;
45618;SDS011;31343;47.520;19.144;2023-03-26T08:44:50;3.00;;;1.20;;
45618;SDS011;31343;47.520;19.144;2023-03-26T08:47:51;3.42;;;1.20;;
45618;SDS011;31343;47.520;19.144;2023-03-26T09:12:13;1.75;;;1.00;;
45618;SDS011;31343;47.520;19.144;2023-03-26T09:26:15;1.95;;;0.90;;
45618;SDS011;31343;47.520;19.144;2023-03-26T09:40:15;1.10;;;0.70;;
45618;SDS011;31343;47.520;19.144;2023-03-26T09:50:59;3.58;;;1.15;;
45618;SDS011;31343;47.520;19.144;2023-03-26T10:05:26;1.52;;;0.82;;
45618;SDS011;31343;47.520;19.144;2023-03-26T10:07:55;1.45;;;0.70;;
45618;SDS011;31343;47.520;19.144;2023-03-26T10:10:56;1.08;;;0.60;;
45618;SDS011;31343;47.520;19.144;2023-03-26T10:13:32;2.03;;;0.90;;
45618;SDS011;31343;47.520;19.144;2023-03-26T10:16:22;2.35;;;0.68;;
45618;SDS011;31343;47.520;19.144;2023-03-26T10:21:54;1.80;;;0.65;;
45618;SDS011;31343;47.520;19.144;2023-03-26T10:24:47;1.13;;;0.70;;
45618;SDS011;31343;47.520;19.144;2023-03-26T10:30:37;2.13;;;0.90;;
45618;SDS011;31343;47.520;19.144;2023-03-26T10:33:18;1.58;;;1.00;;
45618;SDS011;31343;47.520;19.144;2023-03-26T10:35:51;2.00;;;0.80;;
45618;SDS011;31343;47.520;19.144;2023-03-26T10:38:35;2.78;;;1.27;;
45618;SDS011;31343;47.520;19.144;2023-03-26T10:41:43;3.08;;;1.20;;
45618;SDS011;31343;47.520;19.144;2023-03-26T10:49:46;1.75;;;0.85;;
45618;SDS011;31343;47.520;19.144;2023-03-26T10:52:23;1.83;;;0.90;;
45618;SDS011;31343;47.520;19.144;2023-03-26T10:54:55;1.65;;;0.80;;
45618;SDS011;31343;47.520;19.144;2023-03-26T11:00:14;2.13;;;0.90;;
45618;SDS011;31343;47.520;19.144;2023-03-26T11:02:45;2.00;;;1.00;;
45618;SDS011;31343;47.520;19.144;2023-03-26T11:13:54;1.45;;;0.80;;
45618;SDS011;31343;47.520;19.144;2023-03-26T11:16:34;1.20;;;0.80;;
45618;SDS011;31343;47.520;19.144;2023-03-26T11:27:26;3.03;;;0.95;;
45618;SDS011;31343;47.520;19.144;2023-03-26T11:32:43;1.83;;;0.80;;
45618;SDS011;31343;47.520;19.144;2023-03-26T11:37:55;2.55;;;0.80;;
45618;SDS011;31343;47.520;19.144;2023-03-26T11:40:28;1.77;;;0.93;;
45618;SDS011;31343;47.520;19.144;2023-03-26T11:42:59;1.10;;;0.80;;
45618;SDS011;31343;47.520;19.144;2023-03-26T11:45:31;1.60;;;0.80;;
45618;SDS011;31343;47.520;19.144;2023-03-26T11:48:07;2.08;;;0.77;;
45618;SDS011;31343;47.520;19.144;2023-03-26T11:50:57;1.13;;;0.60;;
45618;SDS011;31343;47.520;19.144;2023-03-26T11:53:31;2.30;;;0.85;;
45618;SDS011;31343;47.520;19.144;2023-03-26T11:58:39;1.52;;;0.80;;
45618;SDS011;31343;47.520;19.144;2023-03-26T12:01:26;1.73;;;0.90;;
45618;SDS011;31343;47.520;19.144;2023-03-26T12:04:07;1.30;;;0.70;;
45618;SDS011;31343;47.520;19.144;2023-03-26T12:06:37;1.40;;;0.80;;
45618;SDS011;31343;47.520;19.144;2023-03-26T12:09:17;2.10;;;1.00;;
45618;SDS011;31343;47.520;19.144;2023-03-26T12:11:43;2.05;;;0.95;;
45618;SDS011;31343;47.520;19.144;2023-03-26T12:14:15;1.38;;;0.65;;
45618;SDS011;31343;47.520;19.144;2023-03-26T12:16:56;1.33;;;0.70;;
45618;SDS011;31343;47.520;19.144;2023-03-26T12:19:37;1.25;;;0.70;;
45618;SDS011;31343;47.520;19.144;2023-03-26T12:22:27;2.00;;;0.80;;
45618;SDS011;31343;47.520;19.144;2023-03-26T12:25:14;2.42;;;1.20;;
45618;SDS011;31343;47.520;19.144;2023-03-26T12:27:56;1.75;;;0.90;;
45618;SDS011;31343;47.520;19.144;2023-03-26T12:30:34;1.17;;;0.75;;
45618;SDS011;31343;47.520;19.144;2023-03-26T12:33:05;1.50;;;0.80;;
45618;SDS011;31343;47.520;19.144;2023-03-26T12:35:42;0.88;;;0.50;;
45618;SDS011;31343;47.520;19.144;2023-03-26T12:41:05;0.77;;;0.57;;
45618;SDS011;31343;47.520;19.144;2023-03-26T12:43:39;0.77;;;0.55;;
45618;SDS011;31343;47.520;19.144;2023-03-26T12:46:18;1.35;;;0.70;;
45618;SDS011;31343;47.520;19.144;2023-03-26T12:48:56;1.38;;;0.65;;
45618;SDS011;31343;47.520;19.144;2023-03-26T12:51:44;1.33;;;0.52;;
45618;SDS011;31343;47.520;19.144;2023-03-26T12:57:14;1.83;;;0.70;;
45618;SDS011;31343;47.520;19.144;2023-03-26T12:59:47;1.13;;;0.60;;
45618;SDS011;31343;47.520;19.144;2023-03-26T13:17:22;1.27;;;0.52;;
45618;SDS011;31343;47.520;19.144;2023-03-26T13:20:10;1.23;;;0.60;;
45618;SDS011;31343;47.520;19.144;2023-03-26T13:22:50;1.33;;;0.52;;
45618;SDS011;31343;47.520;19.144;2023-03-26T13:30:57;0.80;;;0.60;;
45618;SDS011;31343;47.520;19.144;2023-03-26T13:36:07;0.60;;;0.43;;
45618;SDS011;31343;47.520;19.144;2023-03-26T13:38:53;0.95;;;0.68;;
45618;SDS011;31343;47.520;19.144;2023-03-26T13:47:44;1.05;;;0.70;;
45618;SDS011;31343;47.520;19.144;2023-03-26T13:50:28;1.05;;;0.50;;
45618;SDS011;31343;47.520;19.144;2023-03-26T13:58:01;0.63;;;0.40;;
45618;SDS011;31343;47.520;19.144;2023-03-26T14:00:50;1.00;;;0.60;;
45618;SDS011;31343;47.520;19.144;2023-03-26T14:05:53;0.75;;;0.40;;
45618;SDS011;31343;47.520;19.144;2023-03-26T14:08:28;0.70;;;0.50;;
45618;SDS011;31343;47.520;19.144;2023-03-26T14:11:42;0.80;;;0.60;;
45618;SDS011;31343;47.520;19.144;2023-03-26T14:14:09;0.68;;;0.50;;
45618;SDS011;31343;47.520;19.144;2023-03-26T14:16:51;1.55;;;0.70;;
45618;SDS011;31343;47.520;19.144;2023-03-26T14:30:36;0.65;;;0.38;;
45618;SDS011;31343;47.520;19.144;2023-03-26T14:47:24;0.43;;;0.30;;
45618;SDS011;31343;47.520;19.144;2023-03-26T14:52:47;1.40;;;0.60;;
45618;SDS011;31343;47.520;19.144;2023-03-26T14:58:26;1.17;;;0.65;;
45618;SDS011;31343;47.520;19.144;2023-03-26T15:12:31;0.47;;;0.32;;
45618;SDS011;31343;47.520;19.144;2023-03-26T15:39:20;1.65;;;0.60;;
45618;SDS011;31343;47.520;19.144;2023-03-26T15:42:05;1.23;;;0.50;;
45618;SDS011;31343;47.520;19.144;2023-03-26T15:44:56;0.40;;;0.38;;
45618;SDS011;31343;47.520;19.144;2023-03-26T15:52:45;1.25;;;0.55;;
45618;SDS011;31343;47.520;19.144;2023-03-26T15:55:32;1.20;;;0.60;;
45618;SDS011;31343;47.520;19.144;2023-03-26T15:58:24;1.40;;;0.70;;
45618;SDS011;31343;47.520;19.144;2023-03-26T16:01:34;1.58;;;0.80;;
45618;SDS011;31343;47.520;19.144;2023-03-26T16:04:16;1.45;;;0.70;;
45618;SDS011;31343;47.520;19.144;2023-03-26T16:07:08;1.15;;;0.60;;
45618;SDS011;31343;47.520;19.144;2023-03-26T16:12:30;2.83;;;0.70;;
45618;SDS011;31343;47.520;19.144;2023-03-26T16:15:22;2.05;;;0.80;;
45618;SDS011;31343;47.520;19.144;2023-03-26T16:20:47;0.90;;;0.60;;
45618;SDS011;31343;47.520;19.144;2023-03-26T16:23:24;2.22;;;0.70;;
45618;SDS011;31343;47.520;19.144;2023-03-26T16:28:35;1.70;;;1.33;;
45618;SDS011;31343;47.520;19.144;2023-03-26T16:41:27;1.38;;;0.90;;
45618;SDS011;31343;47.520;19.144;2023-03-26T16:44:01;1.88;;;0.95;;
45618;SDS011;31343;47.520;19.144;2023-03-26T16:52:01;2.15;;;1.08;;
45618;SDS011;31343;47.520;19.144;2023-03-26T16:54:42;2.28;;;1.20;;
45618;SDS011;31343;47.520;19.144;2023-03-26T17:08:29;3.22;;;1.20;;
45618;SDS011;31343;47.520;19.144;2023-03-26T17:19:47;2.45;;;1.40;;
45618;SDS011;31343;47.520;19.144;2023-03-26T17:27:46;2.60;;;1.30;;
45618;SDS011;31343;47.520;19.144;2023-03-26T17:36:12;3.75;;;2.30;;
45618;SDS011;31343;47.520;19.144;2023-03-26T17:41:06;2.85;;;1.23;;
45618;SDS011;31343;47.520;19.144;2023-03-26T17:46:46;4.18;;;2.33;;
45618;SDS011;31343;47.520;19.144;2023-03-26T17:59:48;1.75;;;0.95;;
45618;SDS011;31343;47.520;19.144;2023-03-26T18:02:21;3.17;;;1.00;;
45618;SDS011;31343;47.520;19.144;2023-03-26T18:04:57;2.85;;;1.13;;
45618;SDS011;31343;47.520;19.144;2023-03-26T18:15:43;4.40;;;1.40;;
45618;SDS011;31343;47.520;19.144;2023-03-26T18:18:38;4.50;;;1.80;;
45618;SDS011;31343;47.520;19.144;2023-03-26T18:21:06;6.53;;;2.40;;
45618;SDS011;31343;47.520;19.144;2023-03-26T18:26:16;3.13;;;1.48;;
45618;SDS011;31343;47.520;19.144;2023-03-26T18:28:53;2.78;;;1.50;;
45618;SDS011;31343;47.520;19.144;2023-03-26T18:34:25;3.63;;;1.77;;
45618;SDS011;31343;47.520;19.144;2023-03-26T18:39:41;2.38;;;1.42;;
45618;SDS011;31343;47.520;19.144;2023-03-26T18:42:21;2.40;;;1.00;;
45618;SDS011;31343;47.520;19.144;2023-03-26T18:44:48;2.85;;;1.40;;
45618;SDS011;31343;47.520;19.144;2023-03-26T18:47:17;4.90;;;1.67;;
45618;SDS011;31343;47.520;19.144;2023-03-26T18:49:44;5.07;;;1.90;;
45618;SDS011;31343;47.520;19.144;2023-03-26T18:52:15;4.80;;;2.53;;
45618;SDS011;31343;47.520;19.144;2023-03-26T18:54:43;4.70;;;2.65;;
45618;SDS011;31343;47.520;19.144;2023-03-26T18:57:19;4.60;;;2.53;;
45618;SDS011;31343;47.520;19.144;2023-03-26T18:59:47;4.68;;;2.67;;
45618;SDS011;31343;47.520;19.144;2023-03-26T19:02:15;3.33;;;2.13;;
45618;SDS011;31343;47.520;19.144;2023-03-26T19:04:42;5.15;;;1.98;;
45618;SDS011;31343;47.520;19.144;2023-03-26T19:07:11;3.63;;;1.58;;
45618;SDS011;31343;47.520;19.144;2023-03-26T19:09:39;4.53;;;1.92;;
45618;SDS011;31343;47.520;19.144;2023-03-26T19:12:28;6.55;;;3.45;;
45618;SDS011;31343;47.520;19.144;2023-03-26T19:15:05;2.92;;;1.65;;
45618;SDS011;31343;47.520;19.144;2023-03-26T19:17:45;3.10;;;1.60;;
45618;SDS011;31343;47.520;19.144;2023-03-26T19:20:21;3.80;;;1.90;;
45618;SDS011;31343;47.520;19.144;2023-03-26T19:22:50;4.82;;;2.20;;
45618;SDS011;31343;47.520;19.144;2023-03-26T19:28:09;6.70;;;2.28;;
45618;SDS011;31343;47.520;19.144;2023-03-26T19:30:43;4.15;;;2.08;;
45618;SDS011;31343;47.520;19.144;2023-03-26T19:33:16;4.80;;;2.13;;
45618;SDS011;31343;47.520;19.144;2023-03-26T19:35:45;5.47;;;2.28;;
45618;SDS011;31343;47.520;19.144;2023-03-26T19:38:20;4.70;;;2.55;;
45618;SDS011;31343;47.520;19.144;2023-03-26T19:40:49;4.10;;;1.98;;
45618;SDS011;31343;47.520;19.144;2023-03-26T19:43:16;4.60;;;2.35;;
45618;SDS011;31343;47.520;19.144;2023-03-26T19:45:43;6.10;;;2.30;;
45618;SDS011;31343;47.520;19.144;2023-03-26T19:48:11;5.60;;;2.97;;
45618;SDS011;31343;47.520;19.144;2023-03-26T19:50:42;7.32;;;2.60;;
45618;SDS011;31343;47.520;19.144;2023-03-26T19:53:21;4.90;;;2.60;;
45618;SDS011;31343;47.520;19.144;2023-03-26T19:58:20;4.45;;;2.60;;
45618;SDS011;31343;47.520;19.144;2023-03-26T20:00:46;4.50;;;2.53;;
45618;SDS011;31343;47.520;19.144;2023-03-26T20:03:11;5.15;;;2.25;;
45618;SDS011;31343;47.520;19.144;2023-03-26T20:05:40;4.10;;;2.85;;
45618;SDS011;31343;47.520;19.144;2023-03-26T20:08:13;4.35;;;2.08;;
45618;SDS011;31343;47.520;19.144;2023-03-26T20:10:41;5.15;;;1.60;;
45618;SDS011;31343;47.520;19.144;2023-03-26T20:13:13;2.38;;;1.48;;
45618;SDS011;31343;47.520;19.144;2023-03-26T20:15:42;4.47;;;1.70;;
45618;SDS011;31343;47.520;19.144;2023-03-26T20:18:12;6.07;;;2.00;;
45618;SDS011;31343;47.520;19.144;2023-03-26T20:20:37;4.60;;;1.60;;
45618;SDS011;31343;47.520;19.144;2023-03-26T20:23:07;4.03;;;2.00;;
45618;SDS011;31343;47.520;19.144;2023-03-26T20:25:39;5.00;;;2.05;;
45618;SDS011;31343;47.520;19.144;2023-03-26T20:28:14;3.83;;;2.05;;
45618;SDS011;31343;47.520;19.144;2023-03-26T20:30:43;4.93;;;2.63;;
45618;SDS011;31343;47.520;19.144;2023-03-26T20:33:20;4.55;;;2.00;;
45618;SDS011;31343;47.520;19.144;2023-03-26T20:35:53;3.85;;;1.92;;
45618;SDS011;31343;47.520;19.144;2023-03-26T20:38:19;4.63;;;2.55;;
45618;SDS011;31343;47.520;19.144;2023-03-26T20:40:45;5.95;;;2.58;;
45618;SDS011;31343;47.520;19.144;2023-03-26T20:43:14;6.15;;;2.30;;
45618;SDS011;31343;47.520;19.144;2023-03-26T20:45:43;6.05;;;2.75;;
45618;SDS011;31343;47.520;19.144;2023-03-26T20:48:09;5.00;;;2.30;;
45618;SDS011;31343;47.520;19.144;2023-03-26T20:50:36;4.40;;;1.95;;
45618;SDS011;31343;47.520;19.144;2023-03-26T20:53:06;5.22;;;2.15;;
45618;SDS011;31343;47.520;19.144;2023-03-26T20:55:36;5.38;;;2.15;;
45618;SDS011;31343;47.520;19.144;2023-03-26T20:58:01;5.60;;;2.88;;
45618;SDS011;31343;47.520;19.144;2023-03-26T21:00:27;5.20;;;2.92;;
45618;SDS011;31343;47.520;19.144;2023-03-26T21:02:54;5.43;;;2.88;;
45618;SDS011;31343;47.520;19.144;2023-03-26T21:05:21;6.00;;;3.20;;
45618;SDS011;31343;47.520;19.144;2023-03-26T21:07:54;4.50;;;2.40;;